Time;durP1;ratioP1;P1;durP2;ratioP2;P2;SDS_P1;SDS_P2;PMS_P1;PMS_P2;Temp;Humidity;BMP_temperature;BMP_pressure;BME280_temperature;BME280_humidity;BME280_pressure;Samples;Min_cycle;Max_cycle;Signal;HPM_P1;HPM_P2
2022/02/26 00:01:23;;;;;;;13.33;5.97;;;;;;;0.56;100.00;97375.22;5094353;28;20480;-77
2022/02/26 00:03:48;;;;;;;10.67;4.90;;;;;;;0.59;100.00;97377.66;5085761;28;20445;-78
2022/02/26 00:06:14;;;;;;;10.73;4.60;;;;;;;0.58;100.00;97385.53;5105013;28;21028;-77
2022/02/26 00:08:40;;;;;;;10.87;3.90;;;;;;;0.54;100.00;97382.22;5110997;28;20397;-77
2022/02/26 00:11:05;;;;;;;15.37;4.40;;;;;;;0.57;100.00;97376.91;5110831;28;20044;-77
2022/02/26 00:13:31;;;;;;;12.23;4.67;;;;;;;0.63;100.00;97379.19;5096647;28;20030;-76
2022/02/26 00:15:57;;;;;;;14.53;4.57;;;;;;;0.60;100.00;97376.75;5102377;28;20455;-77
2022/02/26 00:18:23;;;;;;;13.90;5.37;;;;;;;0.54;100.00;97379.66;5108010;28;20476;-77
2022/02/26 00:20:49;;;;;;;10.03;4.23;;;;;;;0.50;100.00;97382.41;5089003;28;20086;-78
2022/02/26 00:23:14;;;;;;;10.67;4.20;;;;;;;0.53;100.00;97377.94;5119845;28;20441;-81
2022/02/26 00:25:40;;;;;;;10.63;4.33;;;;;;;0.57;100.00;97378.63;5081841;28;20513;-78
2022/02/26 00:28:06;;;;;;;11.30;4.43;;;;;;;0.50;100.00;97383.25;5065805;28;20047;-78
2022/02/26 00:30:32;;;;;;;14.20;4.50;;;;;;;0.57;100.00;97387.28;5078436;28;20397;-78
2022/02/26 00:32:58;;;;;;;12.67;4.83;;;;;;;0.52;100.00;97378.88;5087718;28;20490;-78
2022/02/26 00:35:23;;;;;;;12.10;3.53;;;;;;;0.57;100.00;97383.81;5096043;28;20032;-77
2022/02/26 00:37:50;;;;;;;13.67;4.07;;;;;;;0.63;100.00;97394.72;5094230;28;20031;-77
2022/02/26 00:40:16;;;;;;;15.93;4.23;;;;;;;0.54;100.00;97395.19;5065448;28;20075;-77
2022/02/26 00:42:41;;;;;;;10.63;4.57;;;;;;;0.54;100.00;97392.59;5091754;28;20459;-78
2022/02/26 00:45:08;;;;;;;9.40;3.40;;;;;;;0.57;100.00;97400.22;5101433;28;20032;-77
2022/02/26 00:47:34;;;;;;;10.60;4.73;;;;;;;0.57;100.00;97395.03;5088761;28;20032;-78
2022/02/26 00:50:02;;;;;;;15.90;6.90;;;;;;;0.57;100.00;97402.81;5075054;28;20486;-78
2022/02/26 00:52:31;;;;;;;17.67;6.60;;;;;;;0.56;100.00;97403.69;5095062;28;20551;-76
2022/02/26 00:54:58;;;;;;;9.67;4.20;;;;;;;0.57;100.00;97399.34;5096367;28;20473;-78
2022/02/26 00:57:24;;;;;;;11.60;4.20;;;;;;;0.59;100.00;97403.56;5087707;28;20805;-77
2022/02/26 00:59:51;;;;;;;10.57;4.30;;;;;;;0.57;100.00;97404.53;5081530;28;20446;-77
2022/02/26 01:02:19;;;;;;;8.63;4.20;;;;;;;0.50;100.00;97403.97;5088810;28;20628;-77
2022/02/26 01:04:47;;;;;;;12.60;4.73;;;;;;;0.57;100.00;97405.41;5087217;28;20477;-78
2022/02/26 01:07:13;;;;;;;12.50;4.80;;;;;;;0.58;100.00;97412.25;5071895;28;20467;-77
2022/02/26 01:09:39;;;;;;;16.40;5.47;;;;;;;0.59;100.00;97423.44;5085042;28;20454;-78
2022/02/26 01:12:06;;;;;;;12.67;5.43;;;;;;;0.58;100.00;97427.78;5074046;28;20443;-77
2022/02/26 01:14:33;;;;;;;17.20;5.30;;;;;;;0.57;100.00;97431.28;5095489;28;20489;-77
2022/02/26 01:17:01;;;;;;;13.47;4.77;;;;;;;0.67;100.00;97435.13;5088755;28;20496;-78
2022/02/26 01:19:27;;;;;;;13.37;5.70;;;;;;;0.69;100.00;97433.28;5098285;28;20438;-77
2022/02/26 01:21:53;;;;;;;11.90;6.07;;;;;;;0.62;100.00;97434.47;5079079;28;20865;-78
2022/02/26 01:24:19;;;;;;;11.83;5.07;;;;;;;0.50;100.00;97440.19;5094279;28;20024;-77
2022/02/26 01:26:45;;;;;;;12.77;5.03;;;;;;;0.50;100.00;97440.19;5078375;28;20501;-76
2022/02/26 01:29:11;;;;;;;9.17;3.93;;;;;;;0.58;100.00;97443.31;5088871;28;20457;-77
2022/02/26 01:31:37;;;;;;;10.57;4.27;;;;;;;0.59;100.00;97442.38;5079060;28;20114;-76
2022/02/26 01:34:04;;;;;;;9.70;4.50;;;;;;;0.46;100.00;97438.66;5075483;28;20501;-77
2022/02/26 01:36:30;;;;;;;12.27;4.07;;;;;;;0.52;100.00;97443.56;5077105;28;20071;-78
2022/02/26 01:38:56;;;;;;;13.97;4.60;;;;;;;0.43;100.00;97438.78;5079067;28;20858;-78
2022/02/26 01:41:23;;;;;;;11.10;4.80;;;;;;;0.48;100.00;97442.03;5076609;28;20462;-77
2022/02/26 01:43:49;;;;;;;14.30;4.93;;;;;;;0.35;100.00;97448.66;5071934;28;20460;-78
2022/02/26 01:46:14;;;;;;;9.90;4.87;;;;;;;0.35;100.00;97446.91;5068619;28;20454;-78
2022/02/26 01:48:40;;;;;;;14.77;4.93;;;;;;;0.36;100.00;97447.72;5093511;28;20472;-79
2022/02/26 01:51:09;;;;;;;14.03;4.33;;;;;;;0.31;100.00;97457.44;5084267;28;20043;-78
2022/02/26 01:53:35;;;;;;;13.20;5.10;;;;;;;0.35;100.00;97456.41;5095401;28;20087;-78
2022/02/26 01:56:06;;;;;;;10.70;4.40;;;;;;;0.28;100.00;97455.00;5088347;28;20489;-77
2022/02/26 01:58:32;;;;;;;14.40;4.23;;;;;;;0.31;100.00;97457.44;5075673;28;20481;-78
2022/02/26 02:00:58;;;;;;;13.63;5.03;;;;;;;0.34;100.00;97462.50;5084569;28;20467;-77
2022/02/26 02:03:24;;;;;;;12.50;4.47;;;;;;;0.32;100.00;97457.38;5091608;28;20507;-77
2022/02/26 02:05:50;;;;;;;9.73;4.33;;;;;;;0.23;100.00;97458.63;5092848;28;20114;-77
2022/02/26 02:08:16;;;;;;;12.10;4.50;;;;;;;0.16;100.00;97457.19;5073632;28;20036;-77
2022/02/26 02:10:43;;;;;;;11.73;4.30;;;;;;;0.15;100.00;97454.66;5084333;28;20111;-78
2022/02/26 02:13:09;;;;;;;11.00;4.43;;;;;;;0.23;100.00;97463.81;5080369;28;20043;-76
2022/02/26 02:15:39;;;;;;;12.67;4.10;;;;;;;0.24;100.00;97456.88;5083351;28;20459;-80
2022/02/26 02:18:07;;;;;;;13.00;5.03;;;;;;;0.20;100.00;97463.94;5075092;28;20036;-78
2022/02/26 02:20:33;;;;;;;8.90;4.37;;;;;;;0.21;100.00;97460.44;5077411;28;20461;-79
2022/02/26 02:22:59;;;;;;;14.23;4.67;;;;;;;0.21;100.00;97465.59;5077550;28;20454;-76
2022/02/26 02:25:30;;;;;;;10.93;4.20;;;;;;;0.14;100.00;97461.59;5063849;28;20036;-77
2022/02/26 02:27:57;;;;;;;12.20;4.90;;;;;;;0.07;100.00;97462.78;5092974;28;20464;-78
2022/02/26 02:30:25;;;;;;;10.63;4.60;;;;;;;0.11;100.00;97463.47;5084318;28;20450;-78
2022/02/26 02:32:51;;;;;;;13.67;5.30;;;;;;;0.06;100.00;97463.66;5093946;28;20990;-77
2022/02/26 02:35:38;;;;;;;10.37;4.97;;;;;;;0.11;100.00;97468.66;5083101;28;21061;-78
2022/02/26 02:38:17;;;;;;;16.90;5.47;;;;;;;0.14;100.00;97461.59;5074226;28;20584;-78
2022/02/26 02:40:45;;;;;;;14.40;5.60;;;;;;;0.22;100.00;97459.50;5091014;28;20473;-78
2022/02/26 02:43:11;;;;;;;11.50;5.60;;;;;;;0.30;100.00;97463.50;5059797;28;20512;-78
2022/02/26 02:45:38;;;;;;;15.20;5.70;;;;;;;0.25;100.00;97460.31;5087914;28;20439;-77
2022/02/26 02:48:04;;;;;;;15.43;6.00;;;;;;;0.28;100.00;97461.00;5069666;28;20457;-77
2022/02/26 02:50:30;;;;;;;13.40;5.87;;;;;;;0.20;100.00;97458.75;5090000;28;20462;-77
2022/02/26 02:52:56;;;;;;;12.67;5.53;;;;;;;0.23;100.00;97466.38;5089814;28;20458;-77
2022/02/26 02:55:22;;;;;;;18.30;6.33;;;;;;;0.23;100.00;97462.94;5085828;28;20028;-78
2022/02/26 02:57:52;;;;;;;11.97;5.90;;;;;;;0.20;100.00;97469.09;5100032;28;20031;-78
2022/02/26 03:00:19;;;;;;;14.53;6.43;;;;;;;0.26;100.00;97477.50;5075152;28;20371;-77
2022/02/26 03:02:45;;;;;;;12.00;5.40;;;;;;;0.26;100.00;97472.31;5090898;28;20484;-78
2022/02/26 03:05:11;;;;;;;15.43;6.47;;;;;;;0.28;100.00;97481.72;5073510;28;20447;-77
2022/02/26 03:07:37;;;;;;;17.07;6.00;;;;;;;0.27;100.00;97485.22;5068820;28;20519;-78
2022/02/26 03:10:05;;;;;;;12.57;5.77;;;;;;;0.29;100.00;97491.13;5075497;28;20028;-78
2022/02/26 03:12:30;;;;;;;18.23;5.77;;;;;;;0.25;100.00;97489.59;5094164;28;20047;-78
2022/02/26 03:14:56;;;;;;;13.70;5.07;;;;;;;0.21;100.00;97491.47;5093515;28;20458;-78
2022/02/26 03:17:24;;;;;;;16.10;5.73;;;;;;;0.37;100.00;97488.22;5061432;28;20070;-77
2022/02/26 03:19:50;;;;;;;12.33;5.37;;;;;;;0.31;100.00;97489.34;5083212;28;20029;-78
2022/02/26 03:22:17;;;;;;;15.07;5.57;;;;;;;0.16;100.00;97482.22;5069570;28;20800;-77
2022/02/26 03:24:44;;;;;;;14.03;5.30;;;;;;;0.22;100.00;97498.31;5072248;28;20046;-78
2022/02/26 03:27:10;;;;;;;16.87;5.70;;;;;;;0.26;100.00;97493.03;5087323;28;20461;-79
2022/02/26 03:29:36;;;;;;;12.63;5.53;;;;;;;0.20;100.00;97497.56;5095266;28;20508;-79
2022/02/26 03:32:02;;;;;;;11.70;5.23;;;;;;;0.26;100.00;97499.03;5078263;28;20028;-78
2022/02/26 03:34:27;;;;;;;13.53;5.50;;;;;;;0.23;100.00;97500.03;5065131;28;20035;-78
2022/02/26 03:36:56;;;;;;;13.00;5.10;;;;;;;0.17;100.00;97495.09;5069857;28;20478;-78
2022/02/26 03:39:31;;;;;;;16.33;5.20;;;;;;;0.18;100.00;97499.34;5089066;28;20301;-76
2022/02/26 03:42:01;;;;;;;12.97;5.63;;;;;;;0.22;100.00;97503.50;5061497;28;20482;-78
2022/02/26 03:44:27;;;;;;;13.00;5.20;;;;;;;0.24;100.00;97511.19;5073917;28;20459;-78
2022/02/26 03:46:53;;;;;;;14.73;5.50;;;;;;;0.33;100.00;97503.03;5085244;28;20526;-78
2022/02/26 03:49:19;;;;;;;13.20;5.67;;;;;;;0.18;100.00;97508.88;5074268;28;20032;-78
2022/02/26 03:51:45;;;;;;;13.13;6.27;;;;;;;0.19;100.00;97506.22;5091186;28;20048;-77
2022/02/26 03:54:10;;;;;;;12.60;5.20;;;;;;;0.15;100.00;97506.41;5087804;28;20043;-77
2022/02/26 03:56:36;;;;;;;12.80;4.97;;;;;;;0.22;100.00;97513.00;5084975;28;20028;-78
2022/02/26 03:59:02;;;;;;;13.20;5.23;;;;;;;0.14;100.00;97510.75;5087090;28;20394;-77
2022/02/26 04:01:27;;;;;;;16.90;6.20;;;;;;;0.15;100.00;97512.41;5070507;28;20032;-80
2022/02/26 04:03:53;;;;;;;14.83;6.40;;;;;;;0.17;100.00;97513.22;5079678;28;20028;-78
2022/02/26 04:06:19;;;;;;;15.37;6.03;;;;;;;0.13;100.00;97521.97;5080329;28;20039;-77
2022/02/26 04:08:44;;;;;;;14.57;6.27;;;;;;;0.11;100.00;97525.56;5097867;28;20089;-77
2022/02/26 04:11:10;;;;;;;12.33;5.73;;;;;;;0.12;100.00;97530.66;5081194;28;20115;-78
2022/02/26 04:13:36;;;;;;;18.33;6.03;;;;;;;0.11;100.00;97525.56;5079232;28;20024;-78
2022/02/26 04:16:03;;;;;;;13.70;5.73;;;;;;;0.13;100.00;97539.25;5073743;28;20120;-76
2022/02/26 04:18:29;;;;;;;22.77;7.07;;;;;;;0.07;100.00;97536.91;5069873;28;20036;-78
2022/02/26 04:20:55;;;;;;;12.33;5.63;;;;;;;0.06;100.00;97537.81;5088944;28;20461;-78
2022/02/26 04:23:20;;;;;;;17.20;6.57;;;;;;;0.03;100.00;97543.94;5088303;28;20055;-78
2022/02/26 04:25:46;;;;;;;16.57;6.77;;;;;;;0.05;100.00;97542.16;5094685;28;20420;-77
2022/02/26 04:28:12;;;;;;;15.43;6.90;;;;;;;0.15;100.00;97545.22;5076506;28;20032;-78
2022/02/26 04:30:37;;;;;;;18.67;6.33;;;;;;;0.07;100.00;97542.94;5097752;28;20032;-78
2022/02/26 04:33:05;;;;;;;14.20;7.30;;;;;;;0.04;100.00;97539.66;5097714;28;20043;-77
2022/02/26 04:35:31;;;;;;;14.77;6.77;;;;;;;0.03;100.00;97543.94;5093675;28;20036;-78
2022/02/26 04:37:56;;;;;;;23.27;8.20;;;;;;;0.05;100.00;97554.25;5080718;28;20521;-77
2022/02/26 04:40:23;;;;;;;18.97;8.23;;;;;;;-0.04;100.00;97545.94;5090825;28;20512;-77
2022/02/26 04:42:48;;;;;;;13.47;6.90;;;;;;;-0.04;100.00;97552.88;5100351;28;20359;-76
2022/02/26 04:45:14;;;;;;;12.33;6.90;;;;;;;-0.03;100.00;97564.91;5094264;28;20451;-76
2022/02/26 04:47:41;;;;;;;14.57;7.13;;;;;;;-0.07;100.00;97565.91;5095169;28;20170;-80
2022/02/26 04:50:09;;;;;;;13.53;7.63;;;;;;;-0.07;100.00;97569.38;5097146;28;20575;-78
2022/02/26 04:52:35;;;;;;;13.90;7.93;;;;;;;-0.01;100.00;97569.09;5081929;28;20461;-78
2022/02/26 04:55:01;;;;;;;17.30;7.53;;;;;;;0.02;100.00;97573.31;5074587;28;20677;-78
2022/02/26 04:57:27;;;;;;;16.70;8.17;;;;;;;-0.03;100.00;97578.69;5097447;28;20470;-78
2022/02/26 04:59:52;;;;;;;18.60;7.60;;;;;;;0.02;100.00;97573.31;5081516;28;20401;-76
2022/02/26 05:02:18;;;;;;;18.07;8.30;;;;;;;-0.07;100.00;97571.09;5093081;28;20071;-78
2022/02/26 05:04:43;;;;;;;19.80;8.43;;;;;;;-0.05;100.00;97575.31;5079915;28;20035;-80
2022/02/26 05:07:09;;;;;;;21.40;9.40;;;;;;;0.01;100.00;97584.56;5080388;28;20034;-77
2022/02/26 05:09:35;;;;;;;21.20;9.03;;;;;;;0.12;100.00;97578.97;5082214;28;20028;-77
2022/02/26 05:12:02;;;;;;;19.00;9.13;;;;;;;0.09;100.00;97579.91;5082021;28;20036;-77
2022/02/26 05:14:27;;;;;;;13.53;7.17;;;;;;;0.03;100.00;97580.16;5089013;28;20039;-78
2022/02/26 05:16:53;;;;;;;19.63;8.30;;;;;;;0.10;100.00;97575.56;5073256;28;20475;-77
2022/02/26 05:19:19;;;;;;;18.27;8.13;;;;;;;0.06;100.00;97576.63;5067722;28;20029;-76
2022/02/26 05:21:45;;;;;;;18.03;8.50;;;;;;;0.09;100.00;97579.91;5088776;28;20587;-78
2022/02/26 05:24:10;;;;;;;17.47;7.93;;;;;;;0.05;100.00;97578.38;5072189;28;20079;-78
2022/02/26 05:26:36;;;;;;;14.60;7.37;;;;;;;0.01;100.00;97588.91;5093517;28;20025;-78
2022/02/26 05:29:03;;;;;;;17.90;7.93;;;;;;;0.05;100.00;97593.88;5089250;28;20075;-77
2022/02/26 05:31:28;;;;;;;16.67;7.77;;;;;;;0.06;100.00;97592.97;5095497;28;20122;-78
2022/02/26 05:33:54;;;;;;;16.33;7.33;;;;;;;0.02;100.00;97604.34;5074882;28;20465;-77
2022/02/26 05:36:20;;;;;;;17.27;7.93;;;;;;;0.02;100.00;97603.50;5091440;28;20065;-77
2022/02/26 05:38:46;;;;;;;18.07;7.50;;;;;;;0.10;100.00;97601.44;5075435;28;20016;-77
2022/02/26 05:41:12;;;;;;;17.63;7.63;;;;;;;0.04;100.00;97612.91;5102674;28;20062;-77
2022/02/26 05:43:37;;;;;;;18.67;7.47;;;;;;;0.11;100.00;97616.91;5087124;28;20043;-78
2022/02/26 05:46:03;;;;;;;21.20;6.57;;;;;;;0.06;100.00;97620.59;5076600;28;20039;-77
2022/02/26 05:48:29;;;;;;;15.83;8.33;;;;;;;0.00;100.00;97629.44;5076297;28;20056;-77
2022/02/26 05:50:56;;;;;;;20.50;7.70;;;;;;;-0.04;100.00;97635.63;5076337;28;20071;-78
2022/02/26 05:53:22;;;;;;;21.67;7.47;;;;;;;0.01;100.00;97646.63;5077399;28;20466;-77
2022/02/26 05:55:48;;;;;;;18.63;7.63;;;;;;;0.01;100.00;97644.06;5096491;28;20462;-77
2022/02/26 05:58:14;;;;;;;19.23;7.17;;;;;;;0.00;100.00;97647.53;5076605;28;20031;-78
2022/02/26 06:00:39;;;;;;;15.90;7.87;;;;;;;0.09;100.00;97643.75;5096215;28;21760;-77
2022/02/26 06:03:05;;;;;;;13.97;6.57;;;;;;;0.04;100.00;97650.84;5092408;28;20032;-78
2022/02/26 06:05:31;;;;;;;15.90;7.63;;;;;;;0.07;100.00;97659.34;5078476;28;20088;-78
2022/02/26 06:07:57;;;;;;;18.87;7.67;;;;;;;0.11;100.00;97660.91;5064723;28;20045;-77
2022/02/26 06:10:23;;;;;;;16.90;7.37;;;;;;;0.12;100.00;97666.91;5077464;28;20029;-77
2022/02/26 06:12:48;;;;;;;17.47;6.80;;;;;;;0.07;100.00;97661.91;5073840;28;20741;-78
2022/02/26 06:15:14;;;;;;;17.30;7.73;;;;;;;0.13;100.00;97668.56;5070042;28;20036;-79
2022/02/26 06:17:40;;;;;;;16.40;7.37;;;;;;;0.16;100.00;97673.63;5078830;28;20040;-78
2022/02/26 06:20:08;;;;;;;19.53;7.77;;;;;;;0.13;100.00;97682.34;5070854;28;20119;-77
2022/02/26 06:22:34;;;;;;;22.43;7.53;;;;;;;0.11;100.00;97681.59;5078405;28;20040;-78
2022/02/26 06:25:00;;;;;;;15.23;7.63;;;;;;;0.13;100.00;97679.75;5075839;28;20453;-78
2022/02/26 06:27:26;;;;;;;16.00;7.90;;;;;;;0.17;100.00;97683.94;5077500;28;20141;-78
2022/02/26 06:29:51;;;;;;;19.30;8.77;;;;;;;0.23;100.00;97686.28;5074428;28;20484;-77
2022/02/26 06:32:17;;;;;;;12.97;7.97;;;;;;;0.22;100.00;97689.75;5075130;28;20104;-78
2022/02/26 06:34:43;;;;;;;15.87;7.13;;;;;;;0.29;100.00;97689.53;5086392;28;20019;-81
2022/02/26 06:37:08;;;;;;;15.00;7.40;;;;;;;0.22;100.00;97689.75;5089009;28;20365;-78
2022/02/26 06:39:34;;;;;;;18.50;8.17;;;;;;;0.29;100.00;97690.38;5074703;28;20438;-77
2022/02/26 06:42:07;;;;;;;24.03;7.63;;;;;;;1.22;100.00;97697.81;5090540;28;20079;-77
2022/02/26 06:44:32;;;;;;;18.27;9.27;;;;;;;1.44;100.00;97690.75;5080973;28;20028;-78
2022/02/26 06:46:58;;;;;;;22.30;8.60;;;;;;;1.83;100.00;97697.69;5071347;28;20786;-78
2022/02/26 06:49:24;;;;;;;19.93;9.23;;;;;;;1.24;100.00;97693.38;5076392;28;20067;-78
2022/02/26 06:51:50;;;;;;;15.57;7.03;;;;;;;0.98;100.00;97710.88;5066285;28;20417;-78
2022/02/26 06:54:15;;;;;;;15.43;5.93;;;;;;;0.83;100.00;97703.75;5075354;28;20032;-79
2022/02/26 06:56:41;;;;;;;20.77;7.60;;;;;;;0.73;100.00;97718.81;5086278;28;20027;-78
2022/02/26 06:59:07;;;;;;;24.87;8.57;;;;;;;1.93;100.00;97700.72;5076351;28;20043;-80
2022/02/26 07:01:33;;;;;;;17.17;8.20;;;;;;;1.24;100.00;97711.53;5091955;28;20080;-77
2022/02/26 07:03:59;;;;;;;15.23;8.13;;;;;;;0.94;100.00;97714.53;5092136;28;20032;-77
2022/02/26 07:06:24;;;;;;;23.20;9.30;;;;;;;0.95;100.00;97716.19;5087796;28;21017;-78
2022/02/26 07:08:50;;;;;;;16.03;7.23;;;;;;;0.80;100.00;97711.63;5091753;28;20568;-77
2022/02/26 07:11:16;;;;;;;16.87;7.37;;;;;;;0.79;100.00;97715.13;5075027;28;20798;-78
2022/02/26 07:13:42;;;;;;;15.47;7.90;;;;;;;0.61;100.00;97722.75;5071143;28;20093;-78
2022/02/26 07:16:07;;;;;;;16.23;7.27;;;;;;;0.62;100.00;97728.75;5078870;28;20059;-77
2022/02/26 07:18:33;;;;;;;17.03;7.83;;;;;;;0.64;100.00;97735.56;5080511;28;20032;-76
2022/02/26 07:20:59;;;;;;;22.30;10.00;;;;;;;0.62;100.00;97739.97;5080318;28;20039;-78
2022/02/26 07:23:24;;;;;;;15.40;8.50;;;;;;;0.64;100.00;97739.91;5078446;28;20096;-79
2022/02/26 07:25:50;;;;;;;16.83;7.87;;;;;;;0.68;100.00;97738.88;5077248;28;20035;-78
2022/02/26 07:28:16;;;;;;;16.83;8.00;;;;;;;0.69;100.00;97746.56;5072911;28;20033;-79
2022/02/26 07:30:43;;;;;;;17.60;8.30;;;;;;;0.64;100.00;97742.50;5093933;28;20020;-78
2022/02/26 07:33:09;;;;;;;17.67;7.27;;;;;;;0.67;100.00;97750.97;5093616;28;20532;-79
2022/02/26 07:35:36;;;;;;;18.03;8.90;;;;;;;0.76;100.00;97751.50;5071114;28;20458;-79
2022/02/26 07:38:03;;;;;;;15.23;8.00;;;;;;;0.78;100.00;97749.72;5098299;28;20461;-79
2022/02/26 07:40:29;;;;;;;15.13;6.80;;;;;;;0.80;100.00;97755.66;5086194;28;20470;-79
2022/02/26 07:42:55;;;;;;;17.07;6.50;;;;;;;0.82;100.00;97756.44;5069719;28;20474;-79
2022/02/26 07:45:21;;;;;;;15.70;6.47;;;;;;;0.90;100.00;97767.31;5085503;28;20454;-79
2022/02/26 07:47:48;;;;;;;18.23;7.83;;;;;;;0.77;100.00;97764.41;5074187;28;20028;-78
2022/02/26 07:50:15;;;;;;;13.87;7.13;;;;;;;0.99;100.00;97769.56;5094970;28;20032;-80
2022/02/26 07:52:41;;;;;;;15.80;7.20;;;;;;;1.07;100.00;97761.47;5096964;28;20454;-81
2022/02/26 07:55:08;;;;;;;22.47;8.23;;;;;;;0.99;100.00;97769.56;5071462;28;21060;-80
2022/02/26 07:57:35;;;;;;;49.27;28.40;;;;;;;1.72;100.00;97763.00;5069802;28;20474;-79
2022/02/26 08:00:03;;;;;;;21.00;9.97;;;;;;;1.73;100.00;97763.84;5091489;28;20506;-79
2022/02/26 08:02:34;;;;;;;14.33;6.37;;;;;;;1.58;100.00;97767.97;5099826;28;20453;-78
2022/02/26 08:05:07;;;;;;;14.17;6.07;;;;;;;1.50;100.00;97768.28;5105323;28;20446;-79
2022/02/26 08:07:33;;;;;;;17.95;5.78;;;;;;;1.44;100.00;97775.47;5097295;28;20510;-79
2022/02/26 08:09:58;;;;;;;11.37;5.17;;;;;;;1.46;100.00;97764.13;5087837;28;20039;-79
2022/02/26 08:12:24;;;;;;;13.63;5.27;;;;;;;1.29;100.00;97767.44;5071572;28;20703;-79
2022/02/26 08:14:50;;;;;;;18.83;4.63;;;;;;;1.50;100.00;97775.22;5097189;28;20413;-79
2022/02/26 08:17:16;;;;;;;10.33;4.23;;;;;;;1.37;100.00;97764.50;5081059;28;20058;-79
2022/02/26 08:19:42;;;;;;;13.47;4.30;;;;;;;1.58;100.00;97758.44;5073404;28;20093;-80
2022/02/26 08:22:08;;;;;;;17.90;9.60;;;;;;;1.61;100.00;97767.81;5095442;28;20866;-79
2022/02/26 08:24:35;;;;;;;14.30;6.37;;;;;;;1.68;100.00;97766.66;5070200;28;20459;-79
2022/02/26 08:27:02;;;;;;;13.40;4.70;;;;;;;1.61;100.00;97768.69;5097246;28;20111;-78
2022/02/26 08:29:28;;;;;;;12.80;4.50;;;;;;;1.72;100.00;97767.38;5077478;28;20467;-79
2022/02/26 08:31:53;;;;;;;12.57;5.30;;;;;;;1.62;100.00;97778.13;5091467;28;20447;-78
2022/02/26 08:34:19;;;;;;;15.73;4.90;;;;;;;1.60;100.00;97772.16;5075172;28;20052;-79
2022/02/26 08:36:45;;;;;;;18.00;5.70;;;;;;;1.65;100.00;97780.59;5088193;28;20028;-79
2022/02/26 08:39:11;;;;;;;18.03;7.40;;;;;;;1.75;100.00;97775.00;5101920;28;20040;-78
2022/02/26 08:41:38;;;;;;;15.53;7.50;;;;;;;1.71;100.00;97776.03;5065873;28;20040;-78
2022/02/26 08:44:04;;;;;;;12.10;4.60;;;;;;;1.78;100.00;97774.88;5061948;28;20028;-78
2022/02/26 08:46:30;;;;;;;17.60;5.00;;;;;;;1.71;100.00;97791.59;5074621;28;20461;-78
2022/02/26 08:48:57;;;;;;;8.40;3.27;;;;;;;1.94;100.00;97781.06;5069008;28;20040;-78
2022/02/26 08:51:24;;;;;;;13.57;3.87;;;;;;;1.97;100.00;97780.91;5089160;28;20037;-77
2022/02/26 08:53:52;;;;;;;12.00;3.50;;;;;;;1.88;100.00;97783.94;5079453;28;20454;-78
2022/02/26 08:56:18;;;;;;;10.70;3.60;;;;;;;1.89;100.00;97772.66;5078650;28;20541;-78
2022/02/26 08:58:43;;;;;;;16.77;6.90;;;;;;;2.18;100.00;97773.94;5088207;28;20564;-78
2022/02/26 09:01:10;;;;;;;15.60;4.00;;;;;;;1.97;100.00;97783.50;5079324;28;20023;-79
2022/02/26 09:03:35;;;;;;;11.10;4.13;;;;;;;2.11;100.00;97778.56;5083939;28;20032;-78
2022/02/26 09:06:01;;;;;;;23.03;4.43;;;;;;;1.92;100.00;97782.06;5066391;28;20461;-77
2022/02/26 09:08:27;;;;;;;10.93;3.67;;;;;;;2.13;100.00;97781.09;5093941;28;20058;-79
2022/02/26 09:10:53;;;;;;;14.10;4.30;;;;;;;2.07;100.00;97779.59;5073525;28;20032;-78
2022/02/26 09:13:18;;;;;;;13.83;3.80;;;;;;;2.16;100.00;97777.53;5078741;28;20028;-78
2022/02/26 09:15:44;;;;;;;14.33;3.23;;;;;;;2.12;100.00;97782.84;5068086;28;20032;-78
2022/02/26 09:18:10;;;;;;;10.70;3.37;;;;;;;2.07;100.00;97776.16;5078146;28;20027;-77
2022/02/26 09:20:36;;;;;;;14.43;4.17;;;;;;;1.82;100.00;97781.63;5096807;28;20040;-78
2022/02/26 09:23:01;;;;;;;13.50;3.20;;;;;;;1.93;100.00;97781.97;5077030;28;20028;-79
2022/02/26 09:25:27;;;;;;;11.03;2.50;;;;;;;1.95;100.00;97781.94;5086303;28;20040;-79
2022/02/26 09:27:54;;;;;;;16.40;3.30;;;;;;;1.68;100.00;97778.75;5080953;28;20114;-79
2022/02/26 09:30:20;;;;;;;14.10;3.57;;;;;;;1.85;100.00;97778.88;5081496;28;20511;-78
2022/02/26 09:32:47;;;;;;;9.73;4.93;;;;;;;2.04;100.00;97779.72;5082749;28;20547;-78
2022/02/26 09:35:13;;;;;;;14.37;2.77;;;;;;;1.89;100.00;97773.47;5093286;28;20596;-79
2022/02/26 09:37:38;;;;;;;9.60;3.40;;;;;;;2.17;100.00;97779.19;5092396;28;20465;-79
2022/02/26 09:40:05;;;;;;;20.87;6.23;;;;;;;2.51;100.00;97773.28;5071698;28;20100;-79
2022/02/26 09:42:30;;;;;;;13.40;4.33;;;;;;;2.72;100.00;97776.66;5076174;28;20490;-78
2022/02/26 09:44:57;;;;;;;15.17;3.33;;;;;;;2.63;99.57;97779.69;5073663;28;20024;-80
2022/02/26 09:47:23;;;;;;;16.37;3.87;;;;;;;2.81;94.79;97774.44;5074959;28;20032;-79
2022/02/26 09:49:49;;;;;;;26.07;13.63;;;;;;;3.10;92.42;97779.16;5085895;28;20077;-78
2022/02/26 09:52:17;;;;;;;12.67;3.43;;;;;;;2.99;93.12;97777.09;5093613;28;20087;-79
2022/02/26 09:54:48;;;;;;;9.67;2.60;;;;;;;3.24;90.03;97784.50;5068607;28;20024;-79
2022/02/26 09:57:15;;;;;;;9.60;2.40;;;;;;;3.56;91.61;97782.06;5073175;28;20043;-79
2022/02/26 09:59:45;;;;;;;9.07;2.33;;;;;;;3.44;87.97;97784.34;5058330;28;20033;-79
2022/02/26 10:02:12;;;;;;;11.27;2.30;;;;;;;3.52;87.88;97787.41;5091262;28;20032;-81
2022/02/26 10:04:58;;;;;;;9.50;2.17;;;;;;;3.49;84.78;97787.56;5097241;28;20043;-79
2022/02/26 10:07:26;;;;;;;11.07;2.17;;;;;;;3.30;81.66;97800.66;5077939;28;20040;-79
2022/02/26 10:09:53;;;;;;;12.00;2.00;;;;;;;3.45;81.04;97793.00;5073809;28;20017;-79
2022/02/26 10:12:28;;;;;;;8.33;2.13;;;;;;;3.01;79.51;97796.03;5068862;28;20051;-79
2022/02/26 10:14:56;;;;;;;11.33;1.63;;;;;;;3.33;79.92;97789.25;5094364;28;20028;-79
2022/02/26 10:17:37;;;;;;;11.70;1.77;;;;;;;3.85;75.05;97789.19;5094985;28;20123;-78
2022/02/26 10:20:15;;;;;;;13.13;2.70;;;;;;;3.80;72.47;97787.78;5073711;28;20039;-78
2022/02/26 10:22:44;;;;;;;10.50;2.00;;;;;;;3.63;74.51;97793.84;5076916;28;20488;-78
2022/02/26 10:25:13;;;;;;;22.93;7.30;;;;;;;3.46;76.51;97790.31;5092151;28;20508;-79
2022/02/26 10:27:47;;;;;;;12.83;2.07;;;;;;;3.29;72.71;97796.38;5085429;28;20036;-79
2022/02/26 10:30:20;;;;;;;10.17;1.60;;;;;;;3.28;71.37;97799.03;5074658;28;20029;-78
2022/02/26 10:33:04;;;;;;;10.73;1.70;;;;;;;3.49;70.25;97792.78;5088076;28;20039;-79
2022/02/26 10:35:47;;;;;;;6.93;1.47;;;;;;;3.44;69.23;97799.94;5075804;28;20131;-79
2022/02/26 10:38:20;;;;;;;33.92;11.65;;;;;;;3.21;67.69;97797.66;5093876;28;20073;-77
2022/02/26 10:41:07;;;;;;;13.48;3.22;;;;;;;2.92;68.80;97792.13;5084629;28;20060;-79
2022/02/26 10:43:39;;;;;;;14.20;3.17;;;;;;;4.88;67.15;97792.31;5079878;28;20028;-79
2022/02/26 10:46:24;;;;;;;9.60;2.17;;;;;;;4.05;67.42;97789.91;5076025;28;20031;-77
2022/02/26 10:48:54;;;;;;;10.53;2.23;;;;;;;4.01;68.51;97789.25;5094013;28;20039;-78
2022/02/26 10:51:24;;;;;;;11.30;2.20;;;;;;;3.54;68.90;97784.72;5095593;28;20032;-79
2022/02/26 10:53:52;;;;;;;9.73;1.80;;;;;;;3.71;70.17;97792.50;5082480;28;20059;-79
2022/02/26 10:56:18;;;;;;;7.00;1.80;;;;;;;3.43;71.17;97790.47;5069300;28;20032;-79
2022/02/26 10:58:44;;;;;;;12.17;2.87;;;;;;;3.30;71.48;97797.19;5090213;28;20085;-77
2022/02/26 11:01:13;;;;;;;8.17;2.30;;;;;;;3.40;75.87;97793.22;5069380;28;20040;-78
2022/02/26 11:03:39;;;;;;;11.67;2.10;;;;;;;3.51;72.68;97795.28;5090955;28;20035;-80
2022/02/26 11:06:08;;;;;;;10.90;1.83;;;;;;;3.66;71.94;97793.69;5074446;28;20170;-79
2022/02/26 11:08:34;;;;;;;8.97;1.90;;;;;;;3.37;71.26;97788.19;5067199;28;20111;-79
2022/02/26 11:11:03;;;;;;;11.40;1.77;;;;;;;2.93;72.03;97804.19;5077257;28;20039;-80
2022/02/26 11:13:29;;;;;;;11.57;2.57;;;;;;;3.37;70.85;97793.38;5092640;28;20028;-79
2022/02/26 11:15:57;;;;;;;11.60;2.83;;;;;;;3.05;71.91;97801.00;5068285;28;20545;-78
2022/02/26 11:18:26;;;;;;;17.73;3.53;;;;;;;3.23;72.90;97796.66;5072965;28;20085;-79
2022/02/26 11:20:52;;;;;;;9.03;1.97;;;;;;;3.34;72.90;97797.91;5085247;28;20040;-80
2022/02/26 11:23:18;;;;;;;12.17;2.47;;;;;;;3.45;73.52;97795.59;5074205;28;20640;-79
2022/02/26 11:25:46;;;;;;;10.70;2.10;;;;;;;3.01;71.16;97798.63;5068484;28;20043;-79